sensor_id;sensor_type;location;lat;lon;timestamp;P1;durP1;ratioP1;P2;durP2;ratioP2
78834;SDS011;68187;42.682;23.352;2024-03-08T00:01:00;4.95;;;3.85;;
78834;SDS011;68187;42.682;23.352;2024-03-08T00:03:27;5.40;;;3.65;;
78834;SDS011;68187;42.682;23.352;2024-03-08T00:05:54;4.82;;;4.20;;
78834;SDS011;68187;42.682;23.352;2024-03-08T00:08:21;4.32;;;3.65;;
78834;SDS011;68187;42.682;23.352;2024-03-08T00:10:48;4.25;;;2.70;;
78834;SDS011;68187;42.682;23.352;2024-03-08T00:13:16;6.00;;;4.78;;
78834;SDS011;68187;42.682;23.352;2024-03-08T00:15:43;5.13;;;4.10;;
78834;SDS011;68187;42.682;23.352;2024-03-08T00:18:10;5.80;;;4.35;;
78834;SDS011;68187;42.682;23.352;2024-03-08T00:20:37;7.07;;;6.00;;
78834;SDS011;68187;42.682;23.352;2024-03-08T00:23:04;5.82;;;4.95;;
78834;SDS011;68187;42.682;23.352;2024-03-08T00:25:31;7.22;;;4.93;;
78834;SDS011;68187;42.682;23.352;2024-03-08T00:27:59;6.72;;;5.82;;
78834;SDS011;68187;42.682;23.352;2024-03-08T00:30:27;7.25;;;6.32;;
78834;SDS011;68187;42.682;23.352;2024-03-08T00:32:54;7.40;;;5.40;;
78834;SDS011;68187;42.682;23.352;2024-03-08T00:35:20;6.30;;;5.10;;
78834;SDS011;68187;42.682;23.352;2024-03-08T00:37:47;6.75;;;5.53;;
78834;SDS011;68187;42.682;23.352;2024-03-08T00:40:15;4.97;;;3.70;;
78834;SDS011;68187;42.682;23.352;2024-03-08T00:42:42;4.80;;;4.32;;
78834;SDS011;68187;42.682;23.352;2024-03-08T00:45:10;5.47;;;4.97;;
78834;SDS011;68187;42.682;23.352;2024-03-08T00:47:38;4.60;;;4.10;;
78834;SDS011;68187;42.682;23.352;2024-03-08T00:50:07;3.63;;;3.28;;
78834;SDS011;68187;42.682;23.352;2024-03-08T00:52:34;4.95;;;4.35;;
78834;SDS011;68187;42.682;23.352;2024-03-08T00:55:01;4.65;;;4.13;;
78834;SDS011;68187;42.682;23.352;2024-03-08T00:57:28;4.43;;;4.03;;
78834;SDS011;68187;42.682;23.352;2024-03-08T00:59:55;3.85;;;2.28;;
78834;SDS011;68187;42.682;23.352;2024-03-08T01:02:22;4.40;;;3.85;;
78834;SDS011;68187;42.682;23.352;2024-03-08T01:04:50;3.97;;;3.58;;
78834;SDS011;68187;42.682;23.352;2024-03-08T01:07:18;3.45;;;1.85;;
78834;SDS011;68187;42.682;23.352;2024-03-08T01:09:45;3.53;;;1.83;;
78834;SDS011;68187;42.682;23.352;2024-03-08T01:12:12;4.70;;;4.30;;
78834;SDS011;68187;42.682;23.352;2024-03-08T01:14:39;4.55;;;4.07;;
78834;SDS011;68187;42.682;23.352;2024-03-08T01:17:05;5.15;;;4.65;;
78834;SDS011;68187;42.682;23.352;2024-03-08T01:19:32;2.90;;;1.63;;
78834;SDS011;68187;42.682;23.352;2024-03-08T01:22:01;5.45;;;5.03;;
78834;SDS011;68187;42.682;23.352;2024-03-08T01:24:28;5.05;;;2.28;;
78834;SDS011;68187;42.682;23.352;2024-03-08T01:26:55;4.78;;;4.05;;
78834;SDS011;68187;42.682;23.352;2024-03-08T01:29:22;4.88;;;4.10;;
78834;SDS011;68187;42.682;23.352;2024-03-08T01:31:49;4.78;;;4.15;;
78834;SDS011;68187;42.682;23.352;2024-03-08T01:34:17;5.85;;;5.35;;
78834;SDS011;68187;42.682;23.352;2024-03-08T01:36:44;5.35;;;4.38;;
78834;SDS011;68187;42.682;23.352;2024-03-08T01:39:12;4.45;;;2.15;;
78834;SDS011;68187;42.682;23.352;2024-03-08T01:41:39;7.32;;;6.70;;
78834;SDS011;68187;42.682;23.352;2024-03-08T01:44:06;4.13;;;2.80;;
78834;SDS011;68187;42.682;23.352;2024-03-08T01:46:34;4.88;;;4.30;;
78834;SDS011;68187;42.682;23.352;2024-03-08T01:49:01;5.63;;;5.13;;
78834;SDS011;68187;42.682;23.352;2024-03-08T01:51:29;5.18;;;3.78;;
78834;SDS011;68187;42.682;23.352;2024-03-08T01:53:57;5.90;;;5.07;;
78834;SDS011;68187;42.682;23.352;2024-03-08T01:56:27;4.47;;;3.78;;
78834;SDS011;68187;42.682;23.352;2024-03-08T01:58:56;5.20;;;4.47;;
78834;SDS011;68187;42.682;23.352;2024-03-08T02:01:24;4.40;;;3.53;;
78834;SDS011;68187;42.682;23.352;2024-03-08T02:03:52;4.72;;;4.10;;
78834;SDS011;68187;42.682;23.352;2024-03-08T02:06:18;6.20;;;3.75;;
78834;SDS011;68187;42.682;23.352;2024-03-08T02:08:45;6.70;;;6.10;;
78834;SDS011;68187;42.682;23.352;2024-03-08T02:11:13;4.22;;;2.35;;
78834;SDS011;68187;42.682;23.352;2024-03-08T02:13:42;5.13;;;4.53;;
78834;SDS011;68187;42.682;23.352;2024-03-08T02:16:09;4.05;;;2.38;;
78834;SDS011;68187;42.682;23.352;2024-03-08T02:18:36;3.70;;;2.65;;
78834;SDS011;68187;42.682;23.352;2024-03-08T02:21:06;5.22;;;4.55;;
78834;SDS011;68187;42.682;23.352;2024-03-08T02:23:33;4.95;;;4.43;;
78834;SDS011;68187;42.682;23.352;2024-03-08T02:26:00;5.40;;;4.13;;
78834;SDS011;68187;42.682;23.352;2024-03-08T02:28:29;5.53;;;5.03;;
78834;SDS011;68187;42.682;23.352;2024-03-08T02:30:57;4.45;;;3.90;;
78834;SDS011;68187;42.682;23.352;2024-03-08T02:33:24;5.43;;;4.93;;
78834;SDS011;68187;42.682;23.352;2024-03-08T02:35:51;5.65;;;4.72;;
78834;SDS011;68187;42.682;23.352;2024-03-08T02:38:20;6.15;;;5.65;;
78834;SDS011;68187;42.682;23.352;2024-03-08T02:40:50;5.25;;;4.65;;
78834;SDS011;68187;42.682;23.352;2024-03-08T02:43:18;5.13;;;4.03;;
78834;SDS011;68187;42.682;23.352;2024-03-08T02:45:47;5.38;;;4.88;;
78834;SDS011;68187;42.682;23.352;2024-03-08T02:48:15;5.03;;;4.53;;
78834;SDS011;68187;42.682;23.352;2024-03-08T02:50:42;6.03;;;5.53;;
78834;SDS011;68187;42.682;23.352;2024-03-08T02:53:09;4.55;;;4.15;;
78834;SDS011;68187;42.682;23.352;2024-03-08T02:55:38;5.15;;;4.65;;
78834;SDS011;68187;42.682;23.352;2024-03-08T02:58:06;3.83;;;3.35;;
78834;SDS011;68187;42.682;23.352;2024-03-08T03:00:35;3.05;;;2.28;;
78834;SDS011;68187;42.682;23.352;2024-03-08T03:03:04;4.43;;;3.22;;
78834;SDS011;68187;42.682;23.352;2024-03-08T03:05:31;4.43;;;3.58;;
78834;SDS011;68187;42.682;23.352;2024-03-08T03:07:58;4.35;;;3.95;;
78834;SDS011;68187;42.682;23.352;2024-03-08T03:10:25;5.90;;;5.40;;
78834;SDS011;68187;42.682;23.352;2024-03-08T03:12:54;3.83;;;2.83;;
78834;SDS011;68187;42.682;23.352;2024-03-08T03:15:21;4.10;;;3.50;;
78834;SDS011;68187;42.682;23.352;2024-03-08T03:17:48;4.82;;;4.43;;
78834;SDS011;68187;42.682;23.352;2024-03-08T03:20:16;3.78;;;3.45;;
78834;SDS011;68187;42.682;23.352;2024-03-08T03:22:48;4.18;;;2.33;;
78834;SDS011;68187;42.682;23.352;2024-03-08T03:25:17;5.50;;;5.00;;
78834;SDS011;68187;42.682;23.352;2024-03-08T03:27:50;3.78;;;2.38;;
78834;SDS011;68187;42.682;23.352;2024-03-08T03:30:19;3.78;;;3.45;;
78834;SDS011;68187;42.682;23.352;2024-03-08T03:32:47;5.35;;;4.88;;
78834;SDS011;68187;42.682;23.352;2024-03-08T03:35:15;4.32;;;3.92;;
78834;SDS011;68187;42.682;23.352;2024-03-08T03:37:42;4.88;;;4.25;;
78834;SDS011;68187;42.682;23.352;2024-03-08T03:40:16;3.30;;;2.35;;
78834;SDS011;68187;42.682;23.352;2024-03-08T03:42:45;3.97;;;3.58;;
78834;SDS011;68187;42.682;23.352;2024-03-08T03:45:12;4.43;;;4.03;;
78834;SDS011;68187;42.682;23.352;2024-03-08T03:47:42;5.45;;;4.07;;
78834;SDS011;68187;42.682;23.352;2024-03-08T03:50:09;4.68;;;4.13;;
78834;SDS011;68187;42.682;23.352;2024-03-08T03:52:36;4.28;;;3.88;;
78834;SDS011;68187;42.682;23.352;2024-03-08T03:55:03;4.22;;;3.80;;
78834;SDS011;68187;42.682;23.352;2024-03-08T03:57:31;3.90;;;3.47;;
78834;SDS011;68187;42.682;23.352;2024-03-08T03:59:58;4.45;;;3.88;;
78834;SDS011;68187;42.682;23.352;2024-03-08T04:02:27;3.78;;;3.40;;
78834;SDS011;68187;42.682;23.352;2024-03-08T04:04:56;4.65;;;3.67;;
78834;SDS011;68187;42.682;23.352;2024-03-08T04:07:24;5.93;;;4.22;;
78834;SDS011;68187;42.682;23.352;2024-03-08T04:09:50;5.13;;;4.65;;
78834;SDS011;68187;42.682;23.352;2024-03-08T04:12:17;5.22;;;4.20;;
78834;SDS011;68187;42.682;23.352;2024-03-08T04:14:44;4.30;;;3.90;;
78834;SDS011;68187;42.682;23.352;2024-03-08T04:17:11;4.72;;;4.32;;
78834;SDS011;68187;42.682;23.352;2024-03-08T04:19:38;4.38;;;3.97;;
78834;SDS011;68187;42.682;23.352;2024-03-08T04:22:07;5.03;;;4.57;;
78834;SDS011;68187;42.682;23.352;2024-03-08T04:24:34;5.55;;;5.05;;
78834;SDS011;68187;42.682;23.352;2024-03-08T04:27:01;4.90;;;3.92;;
78834;SDS011;68187;42.682;23.352;2024-03-08T04:29:29;5.60;;;5.10;;
78834;SDS011;68187;42.682;23.352;2024-03-08T04:31:57;5.97;;;5.35;;
78834;SDS011;68187;42.682;23.352;2024-03-08T04:34:24;5.45;;;4.95;;
78834;SDS011;68187;42.682;23.352;2024-03-08T04:36:53;6.00;;;5.25;;
78834;SDS011;68187;42.682;23.352;2024-03-08T04:39:21;5.03;;;4.20;;
78834;SDS011;68187;42.682;23.352;2024-03-08T04:41:48;4.85;;;3.58;;
78834;SDS011;68187;42.682;23.352;2024-03-08T04:44:16;6.25;;;5.65;;
78834;SDS011;68187;42.682;23.352;2024-03-08T04:46:43;5.07;;;4.53;;
78834;SDS011;68187;42.682;23.352;2024-03-08T04:49:10;5.35;;;4.07;;
78834;SDS011;68187;42.682;23.352;2024-03-08T04:51:38;5.47;;;4.50;;
78834;SDS011;68187;42.682;23.352;2024-03-08T04:54:05;4.97;;;4.25;;
78834;SDS011;68187;42.682;23.352;2024-03-08T04:56:33;6.50;;;5.85;;
78834;SDS011;68187;42.682;23.352;2024-03-08T04:59:01;6.50;;;5.82;;
78834;SDS011;68187;42.682;23.352;2024-03-08T05:01:28;5.63;;;5.03;;
78834;SDS011;68187;42.682;23.352;2024-03-08T05:03:55;5.32;;;4.45;;
78834;SDS011;68187;42.682;23.352;2024-03-08T05:06:22;6.38;;;5.63;;
78834;SDS011;68187;42.682;23.352;2024-03-08T05:08:49;6.28;;;5.50;;
78834;SDS011;68187;42.682;23.352;2024-03-08T05:11:16;5.47;;;4.95;;
78834;SDS011;68187;42.682;23.352;2024-03-08T05:13:44;5.20;;;3.35;;
78834;SDS011;68187;42.682;23.352;2024-03-08T05:16:11;5.30;;;4.10;;
78834;SDS011;68187;42.682;23.352;2024-03-08T05:18:40;6.90;;;5.35;;
78834;SDS011;68187;42.682;23.352;2024-03-08T05:21:08;6.57;;;5.20;;
78834;SDS011;68187;42.682;23.352;2024-03-08T05:23:35;6.82;;;5.60;;
78834;SDS011;68187;42.682;23.352;2024-03-08T05:26:03;6.70;;;5.90;;
78834;SDS011;68187;42.682;23.352;2024-03-08T05:28:30;6.53;;;5.93;;
78834;SDS011;68187;42.682;23.352;2024-03-08T05:30:59;6.68;;;5.97;;
78834;SDS011;68187;42.682;23.352;2024-03-08T05:33:26;6.45;;;5.80;;
78834;SDS011;68187;42.682;23.352;2024-03-08T05:35:53;7.03;;;6.35;;
78834;SDS011;68187;42.682;23.352;2024-03-08T05:38:20;7.38;;;6.70;;
78834;SDS011;68187;42.682;23.352;2024-03-08T05:40:47;6.47;;;5.65;;
78834;SDS011;68187;42.682;23.352;2024-03-08T05:43:13;8.55;;;5.32;;
78834;SDS011;68187;42.682;23.352;2024-03-08T05:45:42;9.30;;;7.88;;
78834;SDS011;68187;42.682;23.352;2024-03-08T05:48:11;8.25;;;7.10;;
78834;SDS011;68187;42.682;23.352;2024-03-08T05:50:38;8.90;;;8.00;;
78834;SDS011;68187;42.682;23.352;2024-03-08T05:53:05;8.43;;;6.35;;
78834;SDS011;68187;42.682;23.352;2024-03-08T05:55:32;9.32;;;6.45;;
78834;SDS011;68187;42.682;23.352;2024-03-08T05:58:00;11.10;;;6.82;;
78834;SDS011;68187;42.682;23.352;2024-03-08T06:00:27;11.10;;;7.32;;
78834;SDS011;68187;42.682;23.352;2024-03-08T06:02:56;11.32;;;9.23;;
78834;SDS011;68187;42.682;23.352;2024-03-08T06:05:25;10.75;;;8.68;;
78834;SDS011;68187;42.682;23.352;2024-03-08T06:07:52;9.68;;;7.60;;
78834;SDS011;68187;42.682;23.352;2024-03-08T06:10:19;11.73;;;8.75;;
78834;SDS011;68187;42.682;23.352;2024-03-08T06:12:46;10.10;;;7.32;;
78834;SDS011;68187;42.682;23.352;2024-03-08T06:15:13;11.82;;;8.50;;
78834;SDS011;68187;42.682;23.352;2024-03-08T06:17:41;10.68;;;8.15;;
78834;SDS011;68187;42.682;23.352;2024-03-08T06:20:08;12.68;;;10.23;;
78834;SDS011;68187;42.682;23.352;2024-03-08T06:22:39;12.70;;;7.85;;
78834;SDS011;68187;42.682;23.352;2024-03-08T06:25:07;12.18;;;9.50;;
78834;SDS011;68187;42.682;23.352;2024-03-08T06:27:36;11.55;;;8.38;;
78834;SDS011;68187;42.682;23.352;2024-03-08T06:30:03;9.82;;;8.43;;
78834;SDS011;68187;42.682;23.352;2024-03-08T06:32:31;8.32;;;7.35;;
78834;SDS011;68187;42.682;23.352;2024-03-08T06:35:00;7.65;;;6.13;;
78834;SDS011;68187;42.682;23.352;2024-03-08T06:37:31;8.27;;;4.82;;
78834;SDS011;68187;42.682;23.352;2024-03-08T06:39:59;8.32;;;6.75;;
78834;SDS011;68187;42.682;23.352;2024-03-08T06:42:28;8.52;;;7.50;;
78834;SDS011;68187;42.682;23.352;2024-03-08T06:44:58;10.70;;;7.95;;
78834;SDS011;68187;42.682;23.352;2024-03-08T06:47:29;8.15;;;6.55;;
78834;SDS011;68187;42.682;23.352;2024-03-08T06:49:56;7.68;;;4.18;;
78834;SDS011;68187;42.682;23.352;2024-03-08T06:52:23;8.15;;;4.72;;
78834;SDS011;68187;42.682;23.352;2024-03-08T06:54:50;7.68;;;6.28;;
78834;SDS011;68187;42.682;23.352;2024-03-08T06:57:19;7.53;;;6.72;;
78834;SDS011;68187;42.682;23.352;2024-03-08T06:59:47;9.55;;;8.02;;
78834;SDS011;68187;42.682;23.352;2024-03-08T07:02:14;7.85;;;6.80;;
78834;SDS011;68187;42.682;23.352;2024-03-08T07:04:41;9.25;;;7.13;;
78834;SDS011;68187;42.682;23.352;2024-03-08T07:07:08;7.72;;;5.00;;
78834;SDS011;68187;42.682;23.352;2024-03-08T07:09:35;9.02;;;6.93;;
78834;SDS011;68187;42.682;23.352;2024-03-08T07:12:02;8.20;;;4.65;;
78834;SDS011;68187;42.682;23.352;2024-03-08T07:14:31;10.60;;;8.10;;
78834;SDS011;68187;42.682;23.352;2024-03-08T07:16:58;15.55;;;7.28;;
78834;SDS011;68187;42.682;23.352;2024-03-08T07:19:25;9.60;;;7.55;;
78834;SDS011;68187;42.682;23.352;2024-03-08T07:21:52;8.10;;;7.25;;
78834;SDS011;68187;42.682;23.352;2024-03-08T07:24:20;8.95;;;8.05;;
78834;SDS011;68187;42.682;23.352;2024-03-08T07:27:03;9.30;;;7.10;;
78834;SDS011;68187;42.682;23.352;2024-03-08T07:29:32;8.70;;;7.50;;
78834;SDS011;68187;42.682;23.352;2024-03-08T07:31:59;8.95;;;6.43;;
78834;SDS011;68187;42.682;23.352;2024-03-08T07:34:37;9.30;;;7.93;;
78834;SDS011;68187;42.682;23.352;2024-03-08T07:37:05;8.75;;;6.25;;
78834;SDS011;68187;42.682;23.352;2024-03-08T07:39:36;7.57;;;6.72;;
78834;SDS011;68187;42.682;23.352;2024-03-08T07:42:04;7.70;;;6.40;;
78834;SDS011;68187;42.682;23.352;2024-03-08T07:44:33;9.48;;;8.20;;
78834;SDS011;68187;42.682;23.352;2024-03-08T07:46:59;7.97;;;5.68;;
78834;SDS011;68187;42.682;23.352;2024-03-08T07:49:26;8.50;;;6.60;;
78834;SDS011;68187;42.682;23.352;2024-03-08T07:51:53;11.05;;;7.07;;
78834;SDS011;68187;42.682;23.352;2024-03-08T07:54:20;11.77;;;7.72;;
78834;SDS011;68187;42.682;23.352;2024-03-08T07:56:47;10.52;;;9.63;;
78834;SDS011;68187;42.682;23.352;2024-03-08T07:59:16;7.65;;;6.63;;
78834;SDS011;68187;42.682;23.352;2024-03-08T08:01:44;7.25;;;6.07;;
78834;SDS011;68187;42.682;23.352;2024-03-08T08:04:12;9.48;;;6.72;;
78834;SDS011;68187;42.682;23.352;2024-03-08T08:06:41;9.65;;;6.97;;
78834;SDS011;68187;42.682;23.352;2024-03-08T08:09:08;8.40;;;5.97;;
78834;SDS011;68187;42.682;23.352;2024-03-08T08:11:39;7.30;;;5.72;;
78834;SDS011;68187;42.682;23.352;2024-03-08T08:14:08;7.20;;;5.63;;
78834;SDS011;68187;42.682;23.352;2024-03-08T08:16:35;8.45;;;7.65;;
78834;SDS011;68187;42.682;23.352;2024-03-08T08:19:04;7.15;;;6.13;;
78834;SDS011;68187;42.682;23.352;2024-03-08T08:21:33;7.43;;;5.55;;
78834;SDS011;68187;42.682;23.352;2024-03-08T08:24:02;7.20;;;6.50;;
78834;SDS011;68187;42.682;23.352;2024-03-08T08:26:47;6.57;;;5.97;;
78834;SDS011;68187;42.682;23.352;2024-03-08T08:29:14;6.03;;;3.60;;
78834;SDS011;68187;42.682;23.352;2024-03-08T08:31:41;8.35;;;4.82;;
78834;SDS011;68187;42.682;23.352;2024-03-08T08:34:10;7.00;;;6.30;;
78834;SDS011;68187;42.682;23.352;2024-03-08T08:36:39;6.38;;;4.75;;
78834;SDS011;68187;42.682;23.352;2024-03-08T08:39:06;6.22;;;5.63;;
78834;SDS011;68187;42.682;23.352;2024-03-08T08:41:38;9.75;;;6.47;;
78834;SDS011;68187;42.682;23.352;2024-03-08T08:44:06;6.50;;;5.57;;
78834;SDS011;68187;42.682;23.352;2024-03-08T08:46:37;7.20;;;6.05;;
78834;SDS011;68187;42.682;23.352;2024-03-08T08:49:04;8.57;;;5.43;;
78834;SDS011;68187;42.682;23.352;2024-03-08T08:51:33;6.18;;;4.68;;
78834;SDS011;68187;42.682;23.352;2024-03-08T08:54:00;5.20;;;3.28;;
78834;SDS011;68187;42.682;23.352;2024-03-08T08:56:26;6.05;;;4.93;;
78834;SDS011;68187;42.682;23.352;2024-03-08T08:58:54;5.05;;;3.63;;
78834;SDS011;68187;42.682;23.352;2024-03-08T09:01:21;7.20;;;5.72;;
78834;SDS011;68187;42.682;23.352;2024-03-08T09:03:48;7.63;;;6.10;;
78834;SDS011;68187;42.682;23.352;2024-03-08T09:06:15;6.97;;;5.53;;
78834;SDS011;68187;42.682;23.352;2024-03-08T09:08:44;6.60;;;4.35;;
78834;SDS011;68187;42.682;23.352;2024-03-08T09:11:12;5.93;;;4.47;;
78834;SDS011;68187;42.682;23.352;2024-03-08T09:13:39;4.53;;;3.25;;
78834;SDS011;68187;42.682;23.352;2024-03-08T09:16:05;4.90;;;3.88;;
78834;SDS011;68187;42.682;23.352;2024-03-08T09:18:33;6.18;;;4.05;;
78834;SDS011;68187;42.682;23.352;2024-03-08T09:21:00;5.65;;;5.05;;
78834;SDS011;68187;42.682;23.352;2024-03-08T09:23:27;7.18;;;5.28;;
78834;SDS011;68187;42.682;23.352;2024-03-08T09:25:56;5.45;;;4.95;;
78834;SDS011;68187;42.682;23.352;2024-03-08T09:28:23;5.72;;;4.03;;
78834;SDS011;68187;42.682;23.352;2024-03-08T09:30:52;6.13;;;4.85;;
78834;SDS011;68187;42.682;23.352;2024-03-08T09:33:20;5.60;;;4.97;;
78834;SDS011;68187;42.682;23.352;2024-03-08T09:35:47;5.10;;;4.15;;
78834;SDS011;68187;42.682;23.352;2024-03-08T09:38:14;8.00;;;4.00;;
78834;SDS011;68187;42.682;23.352;2024-03-08T09:40:41;4.50;;;2.92;;
78834;SDS011;68187;42.682;23.352;2024-03-08T09:43:09;4.90;;;2.42;;
78834;SDS011;68187;42.682;23.352;2024-03-08T09:45:37;4.97;;;3.60;;
78834;SDS011;68187;42.682;23.352;2024-03-08T09:48:07;6.32;;;4.65;;
78834;SDS011;68187;42.682;23.352;2024-03-08T09:50:37;4.20;;;2.88;;
78834;SDS011;68187;42.682;23.352;2024-03-08T09:53:04;4.45;;;3.13;;
78834;SDS011;68187;42.682;23.352;2024-03-08T09:55:34;4.75;;;3.38;;
78834;SDS011;68187;42.682;23.352;2024-03-08T09:58:01;4.63;;;3.88;;
78834;SDS011;68187;42.682;23.352;2024-03-08T10:01:03;5.40;;;3.65;;
78834;SDS011;68187;42.682;23.352;2024-03-08T10:03:31;4.13;;;2.10;;
78834;SDS011;68187;42.682;23.352;2024-03-08T10:05:59;5.28;;;3.45;;
78834;SDS011;68187;42.682;23.352;2024-03-08T10:08:26;6.97;;;4.68;;
78834;SDS011;68187;42.682;23.352;2024-03-08T10:10:54;5.32;;;4.75;;
78834;SDS011;68187;42.682;23.352;2024-03-08T10:13:23;4.75;;;3.75;;
78834;SDS011;68187;42.682;23.352;2024-03-08T10:15:53;7.10;;;5.18;;
78834;SDS011;68187;42.682;23.352;2024-03-08T10:18:21;7.40;;;4.25;;
78834;SDS011;68187;42.682;23.352;2024-03-08T10:21:01;4.10;;;2.30;;
78834;SDS011;68187;42.682;23.352;2024-03-08T10:23:30;4.63;;;3.78;;
78834;SDS011;68187;42.682;23.352;2024-03-08T10:25:59;5.03;;;4.18;;
78834;SDS011;68187;42.682;23.352;2024-03-08T10:28:36;4.65;;;3.83;;
78834;SDS011;68187;42.682;23.352;2024-03-08T10:31:03;4.72;;;3.65;;
78834;SDS011;68187;42.682;23.352;2024-03-08T10:33:32;4.60;;;3.10;;
78834;SDS011;68187;42.682;23.352;2024-03-08T10:35:59;6.60;;;3.83;;
78834;SDS011;68187;42.682;23.352;2024-03-08T10:38:28;3.60;;;2.97;;
78834;SDS011;68187;42.682;23.352;2024-03-08T10:40:58;5.30;;;4.53;;
78834;SDS011;68187;42.682;23.352;2024-03-08T10:43:26;5.00;;;4.60;;
78834;SDS011;68187;42.682;23.352;2024-03-08T10:46:05;5.75;;;3.35;;
78834;SDS011;68187;42.682;23.352;2024-03-08T10:48:45;5.47;;;3.10;;
78834;SDS011;68187;42.682;23.352;2024-03-08T10:51:16;4.32;;;3.50;;
78834;SDS011;68187;42.682;23.352;2024-03-08T10:53:45;5.13;;;4.63;;
78834;SDS011;68187;42.682;23.352;2024-03-08T10:56:14;4.70;;;4.03;;
78834;SDS011;68187;42.682;23.352;2024-03-08T10:58:41;5.07;;;4.22;;
78834;SDS011;68187;42.682;23.352;2024-03-08T11:01:10;4.93;;;3.78;;
78834;SDS011;68187;42.682;23.352;2024-03-08T11:03:45;4.25;;;3.30;;
78834;SDS011;68187;42.682;23.352;2024-03-08T11:06:15;4.30;;;3.40;;
78834;SDS011;68187;42.682;23.352;2024-03-08T11:08:43;4.60;;;4.10;;
78834;SDS011;68187;42.682;23.352;2024-03-08T11:11:23;5.97;;;4.15;;
78834;SDS011;68187;42.682;23.352;2024-03-08T11:13:55;5.85;;;4.38;;
78834;SDS011;68187;42.682;23.352;2024-03-08T11:16:38;4.00;;;2.65;;
78834;SDS011;68187;42.682;23.352;2024-03-08T11:19:26;4.10;;;3.67;;
78834;SDS011;68187;42.682;23.352;2024-03-08T11:22:00;5.68;;;4.25;;
78834;SDS011;68187;42.682;23.352;2024-03-08T11:24:33;4.78;;;3.17;;
78834;SDS011;68187;42.682;23.352;2024-03-08T11:27:05;7.43;;;2.03;;
78834;SDS011;68187;42.682;23.352;2024-03-08T11:29:38;3.80;;;3.05;;
78834;SDS011;68187;42.682;23.352;2024-03-08T11:32:09;3.63;;;1.67;;
78834;SDS011;68187;42.682;23.352;2024-03-08T11:34:39;4.03;;;2.83;;
78834;SDS011;68187;42.682;23.352;2024-03-08T11:39:40;4.25;;;2.67;;
78834;SDS011;68187;42.682;23.352;2024-03-08T11:42:12;4.28;;;3.25;;
78834;SDS011;68187;42.682;23.352;2024-03-08T11:44:39;3.38;;;1.25;;
78834;SDS011;68187;42.682;23.352;2024-03-08T11:47:09;5.88;;;2.47;;
78834;SDS011;68187;42.682;23.352;2024-03-08T11:49:36;3.45;;;1.48;;
78834;SDS011;68187;42.682;23.352;2024-03-08T11:52:10;3.17;;;1.67;;
78834;SDS011;68187;42.682;23.352;2024-03-08T11:54:38;3.28;;;2.08;;
78834;SDS011;68187;42.682;23.352;2024-03-08T11:57:05;2.78;;;1.42;;
78834;SDS011;68187;42.682;23.352;2024-03-08T11:59:35;4.45;;;2.60;;
78834;SDS011;68187;42.682;23.352;2024-03-08T12:02:02;4.32;;;2.65;;
78834;SDS011;68187;42.682;23.352;2024-03-08T12:04:30;4.70;;;2.25;;
78834;SDS011;68187;42.682;23.352;2024-03-08T12:07:00;3.40;;;2.83;;
78834;SDS011;68187;42.682;23.352;2024-03-08T12:09:33;2.85;;;1.38;;
78834;SDS011;68187;42.682;23.352;2024-03-08T12:12:01;2.78;;;1.55;;
78834;SDS011;68187;42.682;23.352;2024-03-08T12:14:29;4.57;;;2.72;;
78834;SDS011;68187;42.682;23.352;2024-03-08T12:16:57;2.75;;;1.73;;
78834;SDS011;68187;42.682;23.352;2024-03-08T12:19:26;6.03;;;1.98;;
78834;SDS011;68187;42.682;23.352;2024-03-08T12:21:53;3.00;;;1.45;;
78834;SDS011;68187;42.682;23.352;2024-03-08T12:24:22;3.28;;;1.70;;
78834;SDS011;68187;42.682;23.352;2024-03-08T12:26:49;3.17;;;2.00;;
78834;SDS011;68187;42.682;23.352;2024-03-08T12:29:20;2.95;;;1.67;;
78834;SDS011;68187;42.682;23.352;2024-03-08T12:31:50;4.28;;;3.00;;
78834;SDS011;68187;42.682;23.352;2024-03-08T12:34:19;3.47;;;1.83;;
78834;SDS011;68187;42.682;23.352;2024-03-08T12:36:46;4.75;;;4.35;;
78834;SDS011;68187;42.682;23.352;2024-03-08T12:39:15;3.42;;;2.20;;
78834;SDS011;68187;42.682;23.352;2024-03-08T12:41:49;4.97;;;2.25;;
78834;SDS011;68187;42.682;23.352;2024-03-08T12:44:17;3.22;;;1.55;;
78834;SDS011;68187;42.682;23.352;2024-03-08T12:46:46;5.68;;;3.45;;
78834;SDS011;68187;42.682;23.352;2024-03-08T12:49:13;4.30;;;3.90;;
78834;SDS011;68187;42.682;23.352;2024-03-08T12:51:42;4.00;;;3.33;;
78834;SDS011;68187;42.682;23.352;2024-03-08T12:54:10;3.53;;;1.58;;
78834;SDS011;68187;42.682;23.352;2024-03-08T12:56:37;4.55;;;1.80;;
78834;SDS011;68187;42.682;23.352;2024-03-08T12:59:06;4.75;;;4.00;;
78834;SDS011;68187;42.682;23.352;2024-03-08T13:01:35;4.65;;;2.00;;
78834;SDS011;68187;42.682;23.352;2024-03-08T13:04:03;3.38;;;1.83;;
78834;SDS011;68187;42.682;23.352;2024-03-08T13:06:31;5.38;;;3.47;;
78834;SDS011;68187;42.682;23.352;2024-03-08T13:08:58;4.97;;;3.78;;
78834;SDS011;68187;42.682;23.352;2024-03-08T13:11:30;4.03;;;2.83;;
78834;SDS011;68187;42.682;23.352;2024-03-08T13:14:01;2.55;;;1.48;;
78834;SDS011;68187;42.682;23.352;2024-03-08T13:16:30;4.38;;;3.08;;
78834;SDS011;68187;42.682;23.352;2024-03-08T13:18:59;7.18;;;2.72;;
78834;SDS011;68187;42.682;23.352;2024-03-08T13:21:26;4.47;;;3.47;;
78834;SDS011;68187;42.682;23.352;2024-03-08T13:23:55;3.70;;;2.88;;
78834;SDS011;68187;42.682;23.352;2024-03-08T13:26:24;4.00;;;3.40;;
78834;SDS011;68187;42.682;23.352;2024-03-08T13:28:56;2.72;;;1.60;;
78834;SDS011;68187;42.682;23.352;2024-03-08T13:31:23;4.05;;;3.55;;
78834;SDS011;68187;42.682;23.352;2024-03-08T13:33:51;5.22;;;3.78;;
78834;SDS011;68187;42.682;23.352;2024-03-08T13:36:23;3.58;;;3.03;;
78834;SDS011;68187;42.682;23.352;2024-03-08T13:38:54;3.22;;;2.55;;
78834;SDS011;68187;42.682;23.352;2024-03-08T13:41:24;4.18;;;1.70;;
78834;SDS011;68187;42.682;23.352;2024-03-08T13:43:51;3.88;;;2.03;;
78834;SDS011;68187;42.682;23.352;2024-03-08T13:46:18;3.42;;;1.60;;
78834;SDS011;68187;42.682;23.352;2024-03-08T13:48:45;4.57;;;2.85;;
78834;SDS011;68187;42.682;23.352;2024-03-08T13:51:14;5.30;;;4.90;;
78834;SDS011;68187;42.682;23.352;2024-03-08T13:53:42;3.75;;;2.95;;
78834;SDS011;68187;42.682;23.352;2024-03-08T13:56:09;9.98;;;4.45;;
78834;SDS011;68187;42.682;23.352;2024-03-08T13:58:37;4.07;;;3.08;;
78834;SDS011;68187;42.682;23.352;2024-03-08T14:01:05;3.55;;;3.13;;
78834;SDS011;68187;42.682;23.352;2024-03-08T14:03:36;5.07;;;2.72;;
78834;SDS011;68187;42.682;23.352;2024-03-08T14:06:03;5.47;;;4.25;;
78834;SDS011;68187;42.682;23.352;2024-03-08T14:08:33;3.85;;;3.25;;
78834;SDS011;68187;42.682;23.352;2024-03-08T14:11:03;5.80;;;4.15;;
78834;SDS011;68187;42.682;23.352;2024-03-08T14:13:40;6.60;;;4.00;;
78834;SDS011;68187;42.682;23.352;2024-03-08T14:16:10;5.95;;;3.42;;
78834;SDS011;68187;42.682;23.352;2024-03-08T14:18:37;5.53;;;3.25;;
78834;SDS011;68187;42.682;23.352;2024-03-08T14:21:04;5.85;;;3.80;;
78834;SDS011;68187;42.682;23.352;2024-03-08T14:23:33;4.82;;;3.58;;
78834;SDS011;68187;42.682;23.352;2024-03-08T14:26:01;5.38;;;4.07;;
78834;SDS011;68187;42.682;23.352;2024-03-08T14:28:28;4.18;;;1.95;;
78834;SDS011;68187;42.682;23.352;2024-03-08T14:30:56;5.43;;;3.67;;
78834;SDS011;68187;42.682;23.352;2024-03-08T14:33:23;3.75;;;1.45;;
78834;SDS011;68187;42.682;23.352;2024-03-08T14:35:50;4.38;;;2.15;;
78834;SDS011;68187;42.682;23.352;2024-03-08T14:38:17;5.30;;;3.50;;
78834;SDS011;68187;42.682;23.352;2024-03-08T14:40:47;6.63;;;4.03;;
78834;SDS011;68187;42.682;23.352;2024-03-08T14:43:13;6.82;;;4.22;;